sensor_id;sensor_type;location;lat;lon;timestamp;P1;durP1;ratioP1;P2;durP2;ratioP2
55633;SDS011;41504;53.162;6.788;2022-08-19T00:00:20;6.55;;;4.53;;
55633;SDS011;41504;53.162;6.788;2022-08-19T00:02:46;6.88;;;4.20;;
55633;SDS011;41504;53.162;6.788;2022-08-19T00:05:12;9.13;;;5.00;;
55633;SDS011;41504;53.162;6.788;2022-08-19T00:07:40;6.72;;;4.45;;
55633;SDS011;41504;53.162;6.788;2022-08-19T00:10:08;8.05;;;4.60;;
55633;SDS011;41504;53.162;6.788;2022-08-19T00:12:36;7.57;;;4.85;;
55633;SDS011;41504;53.162;6.788;2022-08-19T00:15:07;7.32;;;4.43;;
55633;SDS011;41504;53.162;6.788;2022-08-19T00:17:38;7.30;;;4.88;;
55633;SDS011;41504;53.162;6.788;2022-08-19T00:20:06;7.90;;;5.03;;
55633;SDS011;41504;53.162;6.788;2022-08-19T00:22:32;8.57;;;5.18;;
55633;SDS011;41504;53.162;6.788;2022-08-19T00:24:58;6.80;;;4.70;;
55633;SDS011;41504;53.162;6.788;2022-08-19T00:27:24;9.23;;;5.45;;
55633;SDS011;41504;53.162;6.788;2022-08-19T00:29:50;8.07;;;5.35;;
55633;SDS011;41504;53.162;6.788;2022-08-19T00:32:16;7.78;;;5.60;;
55633;SDS011;41504;53.162;6.788;2022-08-19T00:34:42;7.50;;;5.30;;
55633;SDS011;41504;53.162;6.788;2022-08-19T00:37:08;8.30;;;5.38;;
55633;SDS011;41504;53.162;6.788;2022-08-19T00:39:34;8.35;;;5.30;;
55633;SDS011;41504;53.162;6.788;2022-08-19T00:42:00;9.23;;;5.97;;
55633;SDS011;41504;53.162;6.788;2022-08-19T00:44:27;8.90;;;6.50;;
55633;SDS011;41504;53.162;6.788;2022-08-19T00:46:54;8.27;;;5.55;;
55633;SDS011;41504;53.162;6.788;2022-08-19T00:49:34;8.02;;;5.70;;
55633;SDS011;41504;53.162;6.788;2022-08-19T00:52:06;9.35;;;5.93;;
55633;SDS011;41504;53.162;6.788;2022-08-19T00:54:35;11.07;;;6.60;;
55633;SDS011;41504;53.162;6.788;2022-08-19T00:57:03;9.05;;;5.95;;
55633;SDS011;41504;53.162;6.788;2022-08-19T00:59:34;8.18;;;5.80;;
55633;SDS011;41504;53.162;6.788;2022-08-19T01:02:02;7.60;;;5.55;;
55633;SDS011;41504;53.162;6.788;2022-08-19T01:04:28;8.52;;;5.53;;
55633;SDS011;41504;53.162;6.788;2022-08-19T01:06:54;8.05;;;5.65;;
55633;SDS011;41504;53.162;6.788;2022-08-19T01:09:21;7.50;;;5.38;;
55633;SDS011;41504;53.162;6.788;2022-08-19T01:11:47;8.70;;;5.50;;
55633;SDS011;41504;53.162;6.788;2022-08-19T01:14:12;9.27;;;5.85;;
55633;SDS011;41504;53.162;6.788;2022-08-19T01:16:39;8.95;;;5.32;;
55633;SDS011;41504;53.162;6.788;2022-08-19T01:19:09;6.30;;;4.45;;
55633;SDS011;41504;53.162;6.788;2022-08-19T01:22:03;7.82;;;4.88;;
55633;SDS011;41504;53.162;6.788;2022-08-19T01:24:33;8.32;;;5.10;;
55633;SDS011;41504;53.162;6.788;2022-08-19T01:26:59;7.97;;;5.28;;
55633;SDS011;41504;53.162;6.788;2022-08-19T01:29:25;8.77;;;4.97;;
55633;SDS011;41504;53.162;6.788;2022-08-19T01:31:50;7.35;;;4.90;;
55633;SDS011;41504;53.162;6.788;2022-08-19T01:34:18;9.13;;;5.10;;
55633;SDS011;41504;53.162;6.788;2022-08-19T01:36:45;7.03;;;4.88;;
55633;SDS011;41504;53.162;6.788;2022-08-19T01:39:20;7.93;;;5.05;;
55633;SDS011;41504;53.162;6.788;2022-08-19T01:41:47;7.55;;;4.10;;
55633;SDS011;41504;53.162;6.788;2022-08-19T01:44:14;6.40;;;4.70;;
55633;SDS011;41504;53.162;6.788;2022-08-19T01:46:41;7.32;;;4.55;;
55633;SDS011;41504;53.162;6.788;2022-08-19T01:49:07;8.23;;;4.65;;
55633;SDS011;41504;53.162;6.788;2022-08-19T01:51:34;6.93;;;4.45;;
55633;SDS011;41504;53.162;6.788;2022-08-19T01:54:01;9.77;;;4.97;;
55633;SDS011;41504;53.162;6.788;2022-08-19T01:56:27;6.30;;;4.80;;
55633;SDS011;41504;53.162;6.788;2022-08-19T01:58:54;7.47;;;4.60;;
55633;SDS011;41504;53.162;6.788;2022-08-19T02:01:24;9.70;;;5.22;;
55633;SDS011;41504;53.162;6.788;2022-08-19T02:03:49;8.05;;;5.05;;
55633;SDS011;41504;53.162;6.788;2022-08-19T02:06:18;8.15;;;5.68;;
55633;SDS011;41504;53.162;6.788;2022-08-19T02:08:44;9.95;;;6.07;;
55633;SDS011;41504;53.162;6.788;2022-08-19T02:11:17;9.00;;;5.55;;
55633;SDS011;41504;53.162;6.788;2022-08-19T02:13:56;8.38;;;5.57;;
55633;SDS011;41504;53.162;6.788;2022-08-19T02:16:23;8.30;;;5.70;;
55633;SDS011;41504;53.162;6.788;2022-08-19T02:18:49;9.20;;;6.10;;
55633;SDS011;41504;53.162;6.788;2022-08-19T02:21:19;8.52;;;6.57;;
55633;SDS011;41504;53.162;6.788;2022-08-19T02:23:46;8.65;;;5.90;;
55633;SDS011;41504;53.162;6.788;2022-08-19T02:26:12;8.48;;;6.30;;
55633;SDS011;41504;53.162;6.788;2022-08-19T02:28:38;9.82;;;6.30;;
55633;SDS011;41504;53.162;6.788;2022-08-19T02:31:08;8.38;;;5.80;;
55633;SDS011;41504;53.162;6.788;2022-08-19T02:33:39;10.00;;;5.82;;
55633;SDS011;41504;53.162;6.788;2022-08-19T02:36:06;9.00;;;6.10;;
55633;SDS011;41504;53.162;6.788;2022-08-19T02:38:33;9.18;;;6.03;;
55633;SDS011;41504;53.162;6.788;2022-08-19T02:41:04;8.48;;;5.82;;
55633;SDS011;41504;53.162;6.788;2022-08-19T02:43:32;9.75;;;6.43;;
55633;SDS011;41504;53.162;6.788;2022-08-19T02:46:12;9.55;;;5.72;;
55633;SDS011;41504;53.162;6.788;2022-08-19T02:48:37;7.95;;;5.50;;
55633;SDS011;41504;53.162;6.788;2022-08-19T02:51:03;7.13;;;4.75;;
55633;SDS011;41504;53.162;6.788;2022-08-19T02:53:30;8.15;;;4.93;;
55633;SDS011;41504;53.162;6.788;2022-08-19T02:55:56;7.05;;;4.72;;
55633;SDS011;41504;53.162;6.788;2022-08-19T02:58:21;6.95;;;4.50;;
55633;SDS011;41504;53.162;6.788;2022-08-19T03:00:49;6.78;;;4.40;;
55633;SDS011;41504;53.162;6.788;2022-08-19T03:03:17;7.32;;;4.47;;
55633;SDS011;41504;53.162;6.788;2022-08-19T03:05:44;6.85;;;4.38;;
55633;SDS011;41504;53.162;6.788;2022-08-19T03:08:10;7.63;;;4.97;;
55633;SDS011;41504;53.162;6.788;2022-08-19T03:10:44;9.55;;;5.55;;
55633;SDS011;41504;53.162;6.788;2022-08-19T03:13:12;8.70;;;6.07;;
55633;SDS011;41504;53.162;6.788;2022-08-19T03:15:40;10.55;;;6.72;;
55633;SDS011;41504;53.162;6.788;2022-08-19T03:18:07;10.70;;;6.68;;
55633;SDS011;41504;53.162;6.788;2022-08-19T03:20:33;9.05;;;5.78;;
55633;SDS011;41504;53.162;6.788;2022-08-19T03:22:59;8.65;;;5.65;;
55633;SDS011;41504;53.162;6.788;2022-08-19T03:25:25;8.35;;;5.35;;
55633;SDS011;41504;53.162;6.788;2022-08-19T03:27:50;9.55;;;6.20;;
55633;SDS011;41504;53.162;6.788;2022-08-19T03:30:16;10.40;;;6.97;;
55633;SDS011;41504;53.162;6.788;2022-08-19T03:32:42;9.93;;;6.30;;
55633;SDS011;41504;53.162;6.788;2022-08-19T03:35:08;9.45;;;5.85;;
55633;SDS011;41504;53.162;6.788;2022-08-19T03:37:34;8.68;;;6.03;;
55633;SDS011;41504;53.162;6.788;2022-08-19T03:40:00;9.32;;;6.40;;
55633;SDS011;41504;53.162;6.788;2022-08-19T03:42:28;8.63;;;5.95;;
55633;SDS011;41504;53.162;6.788;2022-08-19T03:44:54;9.95;;;6.70;;
55633;SDS011;41504;53.162;6.788;2022-08-19T03:47:20;9.85;;;6.40;;
55633;SDS011;41504;53.162;6.788;2022-08-19T03:49:45;9.82;;;6.32;;
55633;SDS011;41504;53.162;6.788;2022-08-19T03:52:11;8.82;;;5.78;;
55633;SDS011;41504;53.162;6.788;2022-08-19T03:54:37;8.73;;;5.88;;
55633;SDS011;41504;53.162;6.788;2022-08-19T03:57:04;11.70;;;6.05;;
55633;SDS011;41504;53.162;6.788;2022-08-19T03:59:31;9.80;;;6.15;;
55633;SDS011;41504;53.162;6.788;2022-08-19T04:02:00;9.18;;;5.93;;
55633;SDS011;41504;53.162;6.788;2022-08-19T04:04:28;9.65;;;6.55;;
55633;SDS011;41504;53.162;6.788;2022-08-19T04:06:54;10.77;;;6.68;;
55633;SDS011;41504;53.162;6.788;2022-08-19T04:09:20;9.30;;;6.40;;
55633;SDS011;41504;53.162;6.788;2022-08-19T04:11:47;9.73;;;6.05;;
55633;SDS011;41504;53.162;6.788;2022-08-19T04:14:19;10.10;;;6.63;;
55633;SDS011;41504;53.162;6.788;2022-08-19T04:16:48;9.63;;;6.38;;
55633;SDS011;41504;53.162;6.788;2022-08-19T04:19:14;10.48;;;6.50;;
55633;SDS011;41504;53.162;6.788;2022-08-19T19:29:10;21.80;;;15.55;;
55633;SDS011;41504;53.162;6.788;2022-08-19T19:31:39;21.98;;;15.98;;
55633;SDS011;41504;53.162;6.788;2022-08-19T19:34:07;20.90;;;13.82;;
55633;SDS011;41504;53.162;6.788;2022-08-19T19:36:33;18.58;;;14.15;;
55633;SDS011;41504;53.162;6.788;2022-08-19T19:38:58;19.48;;;14.05;;
55633;SDS011;41504;53.162;6.788;2022-08-19T19:41:24;18.15;;;13.38;;
55633;SDS011;41504;53.162;6.788;2022-08-19T19:43:51;19.10;;;13.15;;
55633;SDS011;41504;53.162;6.788;2022-08-19T19:46:18;15.75;;;12.13;;
55633;SDS011;41504;53.162;6.788;2022-08-19T19:48:44;17.52;;;12.25;;
55633;SDS011;41504;53.162;6.788;2022-08-19T19:51:11;17.80;;;12.50;;
55633;SDS011;41504;53.162;6.788;2022-08-19T19:53:37;17.80;;;11.95;;
55633;SDS011;41504;53.162;6.788;2022-08-19T19:56:04;15.35;;;10.95;;
55633;SDS011;41504;53.162;6.788;2022-08-19T19:58:30;15.77;;;11.20;;
55633;SDS011;41504;53.162;6.788;2022-08-19T20:01:04;14.73;;;10.45;;
55633;SDS011;41504;53.162;6.788;2022-08-19T20:03:40;15.10;;;10.95;;
55633;SDS011;41504;53.162;6.788;2022-08-19T20:06:07;13.02;;;10.48;;
55633;SDS011;41504;53.162;6.788;2022-08-19T20:08:34;13.88;;;10.40;;
55633;SDS011;41504;53.162;6.788;2022-08-19T20:13:55;14.40;;;11.45;;
55633;SDS011;41504;53.162;6.788;2022-08-19T20:16:21;14.48;;;11.20;;
55633;SDS011;41504;53.162;6.788;2022-08-19T20:18:50;16.35;;;12.57;;
55633;SDS011;41504;53.162;6.788;2022-08-19T20:21:16;16.05;;;11.68;;
55633;SDS011;41504;53.162;6.788;2022-08-19T20:23:42;15.93;;;12.50;;
55633;SDS011;41504;53.162;6.788;2022-08-19T20:26:08;14.65;;;11.05;;
55633;SDS011;41504;53.162;6.788;2022-08-19T20:28:34;15.93;;;11.80;;
55633;SDS011;41504;53.162;6.788;2022-08-19T20:31:00;14.13;;;10.98;;
55633;SDS011;41504;53.162;6.788;2022-08-19T20:33:25;14.02;;;10.40;;
55633;SDS011;41504;53.162;6.788;2022-08-19T20:35:51;13.85;;;11.48;;
55633;SDS011;41504;53.162;6.788;2022-08-19T20:38:17;16.83;;;12.60;;
55633;SDS011;41504;53.162;6.788;2022-08-19T20:40:42;14.63;;;11.57;;
55633;SDS011;41504;53.162;6.788;2022-08-19T20:43:09;13.23;;;10.45;;
55633;SDS011;41504;53.162;6.788;2022-08-19T20:45:36;14.45;;;11.50;;
55633;SDS011;41504;53.162;6.788;2022-08-19T20:48:03;16.25;;;11.40;;
55633;SDS011;41504;53.162;6.788;2022-08-19T20:50:31;13.60;;;10.60;;
55633;SDS011;41504;53.162;6.788;2022-08-19T20:52:57;16.70;;;11.93;;
55633;SDS011;41504;53.162;6.788;2022-08-19T20:55:23;14.23;;;11.80;;
55633;SDS011;41504;53.162;6.788;2022-08-19T20:57:51;15.73;;;11.52;;
55633;SDS011;41504;53.162;6.788;2022-08-19T21:00:17;15.90;;;11.18;;
55633;SDS011;41504;53.162;6.788;2022-08-19T21:02:43;15.70;;;11.23;;
55633;SDS011;41504;53.162;6.788;2022-08-19T21:05:08;16.88;;;12.25;;
55633;SDS011;41504;53.162;6.788;2022-08-19T21:07:35;15.45;;;11.55;;
55633;SDS011;41504;53.162;6.788;2022-08-19T21:10:00;14.52;;;11.60;;
55633;SDS011;41504;53.162;6.788;2022-08-19T21:12:26;15.82;;;11.75;;
55633;SDS011;41504;53.162;6.788;2022-08-19T21:14:52;17.60;;;11.98;;
55633;SDS011;41504;53.162;6.788;2022-08-19T21:17:17;15.85;;;12.68;;
55633;SDS011;41504;53.162;6.788;2022-08-19T21:19:43;15.82;;;12.55;;
55633;SDS011;41504;53.162;6.788;2022-08-19T21:22:09;15.25;;;12.23;;
55633;SDS011;41504;53.162;6.788;2022-08-19T21:24:35;15.10;;;11.82;;
55633;SDS011;41504;53.162;6.788;2022-08-19T21:27:01;14.15;;;11.07;;
55633;SDS011;41504;53.162;6.788;2022-08-19T21:29:27;14.35;;;11.32;;
55633;SDS011;41504;53.162;6.788;2022-08-19T21:31:56;14.98;;;12.02;;
55633;SDS011;41504;53.162;6.788;2022-08-19T21:34:21;17.65;;;12.30;;
55633;SDS011;41504;53.162;6.788;2022-08-19T21:36:47;15.63;;;12.80;;
55633;SDS011;41504;53.162;6.788;2022-08-19T21:39:13;16.98;;;12.80;;
55633;SDS011;41504;53.162;6.788;2022-08-19T21:41:39;15.75;;;11.82;;
55633;SDS011;41504;53.162;6.788;2022-08-19T21:44:04;16.17;;;12.60;;
55633;SDS011;41504;53.162;6.788;2022-08-19T21:46:30;15.82;;;12.32;;
55633;SDS011;41504;53.162;6.788;2022-08-19T21:48:56;14.75;;;11.63;;
55633;SDS011;41504;53.162;6.788;2022-08-19T21:51:22;15.25;;;12.23;;
55633;SDS011;41504;53.162;6.788;2022-08-19T21:53:47;13.50;;;11.48;;
55633;SDS011;41504;53.162;6.788;2022-08-19T21:56:13;15.57;;;12.40;;
55633;SDS011;41504;53.162;6.788;2022-08-19T21:58:39;15.63;;;12.63;;
55633;SDS011;41504;53.162;6.788;2022-08-19T22:01:05;16.00;;;12.35;;
55633;SDS011;41504;53.162;6.788;2022-08-19T22:03:35;13.82;;;10.55;;
55633;SDS011;41504;53.162;6.788;2022-08-19T22:06:01;18.33;;;11.85;;
55633;SDS011;41504;53.162;6.788;2022-08-19T22:08:28;15.40;;;12.05;;
55633;SDS011;41504;53.162;6.788;2022-08-19T22:10:55;13.32;;;11.07;;
55633;SDS011;41504;53.162;6.788;2022-08-19T22:13:23;14.52;;;10.85;;
55633;SDS011;41504;53.162;6.788;2022-08-19T22:15:50;15.27;;;11.60;;
55633;SDS011;41504;53.162;6.788;2022-08-19T22:18:16;15.32;;;11.90;;
55633;SDS011;41504;53.162;6.788;2022-08-19T22:20:42;15.32;;;11.30;;
55633;SDS011;41504;53.162;6.788;2022-08-19T22:23:09;14.45;;;11.60;;
55633;SDS011;41504;53.162;6.788;2022-08-19T22:25:36;12.98;;;11.15;;
55633;SDS011;41504;53.162;6.788;2022-08-19T22:30:35;15.43;;;11.15;;
55633;SDS011;41504;53.162;6.788;2022-08-19T22:33:05;15.80;;;11.45;;
55633;SDS011;41504;53.162;6.788;2022-08-19T22:35:34;14.93;;;11.70;;
55633;SDS011;41504;53.162;6.788;2022-08-19T22:38:02;15.00;;;11.45;;
55633;SDS011;41504;53.162;6.788;2022-08-19T22:40:30;15.65;;;10.93;;
55633;SDS011;41504;53.162;6.788;2022-08-19T22:43:01;15.63;;;11.68;;
55633;SDS011;41504;53.162;6.788;2022-08-19T22:45:29;13.35;;;9.98;;
55633;SDS011;41504;53.162;6.788;2022-08-19T22:47:57;13.48;;;10.45;;
55633;SDS011;41504;53.162;6.788;2022-08-19T22:50:24;13.45;;;10.20;;
55633;SDS011;41504;53.162;6.788;2022-08-19T22:52:54;13.85;;;10.13;;
55633;SDS011;41504;53.162;6.788;2022-08-19T22:55:22;13.23;;;10.27;;
55633;SDS011;41504;53.162;6.788;2022-08-19T22:57:48;13.77;;;10.55;;
55633;SDS011;41504;53.162;6.788;2022-08-19T23:00:14;12.18;;;9.85;;
55633;SDS011;41504;53.162;6.788;2022-08-19T23:02:40;13.55;;;9.93;;
55633;SDS011;41504;53.162;6.788;2022-08-19T23:05:07;14.35;;;9.18;;
55633;SDS011;41504;53.162;6.788;2022-08-19T23:07:35;14.10;;;9.55;;
55633;SDS011;41504;53.162;6.788;2022-08-19T23:10:02;12.75;;;10.00;;
55633;SDS011;41504;53.162;6.788;2022-08-19T23:12:31;12.55;;;9.63;;
55633;SDS011;41504;53.162;6.788;2022-08-19T23:15:05;13.13;;;8.93;;
55633;SDS011;41504;53.162;6.788;2022-08-19T23:17:36;10.80;;;8.43;;
55633;SDS011;41504;53.162;6.788;2022-08-19T23:20:05;11.15;;;8.18;;
55633;SDS011;41504;53.162;6.788;2022-08-19T23:22:32;13.05;;;9.07;;
55633;SDS011;41504;53.162;6.788;2022-08-19T23:25:06;12.52;;;8.80;;
55633;SDS011;41504;53.162;6.788;2022-08-19T23:27:34;14.00;;;9.00;;
55633;SDS011;41504;53.162;6.788;2022-08-19T23:30:18;11.15;;;8.25;;
55633;SDS011;41504;53.162;6.788;2022-08-19T23:32:58;13.13;;;8.83;;
55633;SDS011;41504;53.162;6.788;2022-08-19T23:35:33;12.85;;;8.43;;
55633;SDS011;41504;53.162;6.788;2022-08-19T23:38:03;12.30;;;8.35;;
55633;SDS011;41504;53.162;6.788;2022-08-19T23:40:29;11.25;;;8.20;;
55633;SDS011;41504;53.162;6.788;2022-08-19T23:42:54;12.50;;;8.43;;
55633;SDS011;41504;53.162;6.788;2022-08-19T23:45:21;13.40;;;8.32;;
55633;SDS011;41504;53.162;6.788;2022-08-19T23:47:49;11.88;;;7.90;;
55633;SDS011;41504;53.162;6.788;2022-08-19T23:50:15;11.95;;;8.05;;
55633;SDS011;41504;53.162;6.788;2022-08-19T23:52:42;12.60;;;8.15;;
55633;SDS011;41504;53.162;6.788;2022-08-19T23:55:14;11.15;;;7.40;;
55633;SDS011;41504;53.162;6.788;2022-08-19T23:57:40;11.35;;;7.32;;
